createdAt,value
2018-12-17T00:02:21.002Z,167.63
2018-12-17T00:04:49.308Z,179.70
2018-12-17T00:07:17.472Z,183.30
2018-12-17T00:09:45.630Z,152.40
2018-12-17T00:12:16.597Z,125.80
2018-12-17T00:14:43.953Z,201.73
2018-12-17T00:17:12.142Z,229.77
2018-12-17T00:19:40.412Z,275.87
2018-12-17T00:22:08.622Z,312.27
2018-12-17T00:24:36.948Z,176.67
2018-12-17T00:27:05.228Z,188.33
2018-12-17T00:29:33.392Z,306.40
2018-12-17T00:32:01.767Z,247.77
2018-12-17T00:34:29.971Z,226.93
2018-12-17T00:36:58.154Z,284.33
2018-12-17T00:39:26.304Z,136.07
2018-12-17T00:41:54.471Z,235.43
2018-12-17T00:44:22.622Z,242.67
2018-12-17T00:46:50.778Z,275.90
2018-12-17T00:49:19.069Z,171.40
2018-12-17T00:51:47.337Z,184.70
2018-12-17T00:54:15.496Z,158.07
2018-12-17T00:56:44.235Z,182.97
2018-12-17T00:59:12.680Z,185.80
2018-12-17T01:01:40.827Z,144.77
2018-12-17T01:04:08.969Z,216.13
2018-12-17T01:06:37.261Z,104.17
2018-12-17T01:09:06.573Z,201.73
2018-12-17T01:11:34.993Z,182.37
2018-12-17T01:14:03.154Z,180.73
2018-12-17T01:16:31.300Z,155.57
2018-12-17T01:18:59.464Z,208.93
2018-12-17T01:21:28.767Z,147.57
2018-12-17T01:23:56.918Z,158.93
2018-12-17T01:26:25.178Z,141.60
2018-12-17T01:28:53.586Z,122.97
2018-12-17T01:31:21.738Z,156.93
2018-12-17T01:33:50.112Z,114.30
2018-12-17T01:36:18.263Z,135.10
2018-12-17T01:38:46.470Z,154.50
2018-12-17T01:41:14.615Z,180.00
2018-12-17T01:43:42.771Z,200.83
2018-12-17T01:46:11.769Z,182.63
2018-12-17T01:48:39.977Z,219.80
2018-12-17T01:51:08.301Z,195.47
2018-12-17T01:53:36.445Z,152.67
2018-12-17T01:56:04.682Z,127.30
2018-12-17T01:58:32.850Z,197.40
2018-12-17T02:01:00.986Z,196.07
2018-12-17T02:03:29.118Z,221.43
2018-12-17T02:05:57.270Z,165.27
2018-12-17T02:08:25.428Z,185.70
2018-12-17T02:10:53.562Z,171.27
2018-12-17T02:13:22.472Z,225.40
2018-12-17T02:15:50.679Z,179.07
2018-12-17T02:18:18.807Z,144.67
2018-12-17T02:20:46.963Z,140.63
2018-12-17T02:23:15.424Z,143.07
2018-12-17T02:25:43.619Z,152.87
2018-12-17T02:28:11.776Z,126.60
2018-12-17T02:30:39.918Z,121.07
2018-12-17T02:33:08.146Z,127.13
2018-12-17T02:35:36.362Z,126.83
2018-12-17T02:38:04.511Z,138.83
2018-12-17T02:40:32.690Z,121.73
2018-12-17T02:43:00.845Z,156.93
2018-12-17T02:45:29.053Z,155.53
2018-12-17T02:47:57.258Z,136.70
2018-12-17T02:50:25.573Z,119.50
2018-12-17T02:52:53.749Z,137.63
2018-12-17T02:55:21.949Z,175.67
2018-12-17T02:57:50.107Z,183.60
2018-12-17T03:00:18.637Z,152.27
2018-12-17T03:02:47.055Z,189.90
2018-12-17T03:05:15.262Z,145.70
2018-12-17T03:07:43.481Z,182.10
2018-12-17T03:10:11.701Z,171.33
2018-12-17T03:12:40.022Z,217.13
2018-12-17T03:15:08.351Z,163.47
2018-12-17T03:17:36.483Z,217.13
2018-12-17T03:20:04.786Z,171.73
2018-12-17T03:22:32.932Z,179.23
2018-12-17T03:25:01.549Z,255.27
2018-12-17T03:27:29.848Z,197.73
2018-12-17T03:29:58.054Z,288.47
2018-12-17T03:32:26.362Z,291.40
2018-12-17T03:34:54.581Z,294.70
2018-12-17T03:37:22.725Z,305.20
2018-12-17T03:39:50.978Z,273.33
2018-12-17T03:42:19.735Z,215.17
2018-12-17T03:44:47.938Z,308.37
2018-12-17T03:47:16.147Z,190.37
2018-12-17T03:49:44.376Z,293.03
2018-12-17T03:52:12.714Z,151.50
2018-12-17T03:54:40.981Z,178.80
2018-12-17T03:57:09.308Z,148.40
2018-12-17T03:59:37.502Z,199.80
2018-12-17T04:02:05.737Z,212.57
2018-12-17T04:04:33.953Z,204.53
2018-12-17T04:07:02.107Z,158.03
2018-12-17T04:09:30.421Z,149.50
2018-12-17T04:11:58.626Z,128.47
2018-12-17T04:14:26.829Z,157.23
2018-12-17T04:16:54.981Z,161.13
2018-12-17T04:19:23.129Z,136.70
2018-12-17T04:21:52.943Z,158.17
2018-12-17T04:24:21.383Z,124.60
2018-12-17T04:26:49.545Z,107.10
2018-12-17T04:29:17.741Z,115.53
2018-12-17T04:31:45.901Z,120.37
2018-12-17T04:34:14.114Z,112.77
2018-12-17T04:36:42.505Z,110.43
2018-12-17T04:39:10.853Z,109.43
2018-12-17T04:41:39.148Z,118.43
2018-12-17T04:44:07.390Z,95.47
2018-12-17T04:46:35.555Z,104.47
2018-12-17T04:49:04.272Z,128.23
2018-12-17T04:51:32.475Z,110.83
2018-12-17T04:54:00.665Z,133.77
2018-12-17T04:56:28.974Z,126.17
2018-12-17T04:58:57.176Z,120.53
2018-12-17T05:01:25.597Z,148.07
2018-12-17T05:03:53.839Z,150.93
2018-12-17T05:06:22.049Z,142.67
2018-12-17T05:08:50.285Z,118.93
2018-12-17T05:11:18.497Z,141.07
2018-12-17T05:13:46.752Z,136.43
2018-12-17T05:16:14.895Z,138.83
2018-12-17T05:18:43.090Z,139.27
2018-12-17T05:21:11.275Z,124.47
2018-12-17T05:23:39.503Z,136.17
2018-12-17T05:26:08.648Z,132.33
2018-12-17T05:28:36.790Z,148.03
2018-12-17T05:31:05.065Z,126.43
2018-12-17T05:33:33.488Z,138.70
2018-12-17T05:36:02.018Z,144.60
2018-12-17T05:38:31.139Z,151.53
2018-12-17T05:40:59.330Z,154.37
2018-12-17T05:43:27.526Z,146.90
2018-12-17T05:45:55.906Z,154.17
2018-12-17T05:48:24.541Z,132.77
2018-12-17T05:50:52.749Z,208.37
2018-12-17T05:53:20.911Z,152.37
2018-12-17T05:55:49.052Z,191.50
2018-12-17T05:58:17.262Z,240.83
2018-12-17T06:00:45.566Z,203.03
2018-12-17T06:03:13.772Z,234.40
2018-12-17T06:05:42.398Z,232.40
2018-12-17T06:08:12.396Z,204.43
2018-12-17T06:10:40.772Z,243.23
2018-12-17T06:13:09.078Z,244.33
2018-12-17T06:15:37.217Z,253.17
2018-12-17T06:18:05.353Z,315.83
2018-12-17T06:20:33.684Z,291.23
2018-12-17T06:23:02.079Z,375.40
2018-12-17T06:25:30.223Z,219.30
2018-12-17T06:27:58.446Z,333.93
2018-12-17T06:30:26.595Z,222.67
2018-12-17T06:32:54.811Z,177.37
2018-12-17T06:35:22.952Z,287.57
2018-12-17T06:37:51.165Z,255.13
2018-12-17T06:40:19.295Z,255.10
2018-12-17T06:42:47.502Z,289.87
2018-12-17T06:45:15.707Z,233.13
2018-12-17T06:47:44.630Z,311.53
2018-12-17T06:50:12.896Z,334.40
2018-12-17T06:52:41.115Z,300.47
2018-12-17T06:55:09.858Z,260.80
2018-12-17T06:57:38.055Z,221.90
2018-12-17T07:00:06.816Z,280.67
2018-12-17T07:02:35.096Z,234.90
2018-12-17T07:05:04.290Z,342.77
2018-12-17T07:07:32.505Z,226.80
2018-12-17T07:10:00.751Z,423.07
2018-12-17T07:12:29.737Z,261.60
2018-12-17T07:14:57.930Z,274.03
2018-12-17T07:17:26.113Z,317.07
2018-12-17T07:19:54.337Z,348.87
2018-12-17T07:22:22.633Z,341.47
2018-12-17T07:24:50.901Z,382.13
2018-12-17T07:27:19.114Z,276.40
2018-12-17T07:29:49.892Z,282.63
2018-12-17T07:32:18.648Z,264.87
2018-12-17T07:34:47.205Z,334.83
2018-12-17T07:37:15.508Z,270.20
2018-12-17T07:39:44.022Z,275.23
2018-12-17T07:42:12.236Z,218.00
2018-12-17T07:44:41.167Z,216.10
2018-12-17T07:47:09.799Z,277.23
2018-12-17T07:49:38.108Z,211.00
2018-12-17T07:52:06.330Z,240.20
2018-12-17T07:54:34.476Z,194.43
2018-12-17T07:57:02.841Z,297.57
2018-12-17T07:59:30.963Z,223.30
2018-12-17T08:01:59.205Z,195.80
2018-12-17T08:04:27.393Z,230.67
2018-12-17T08:06:55.611Z,207.70
2018-12-17T08:09:23.888Z,202.67
2018-12-17T08:11:52.189Z,209.67
2018-12-17T08:14:20.366Z,246.40
2018-12-17T08:16:48.993Z,217.50
2018-12-17T08:19:17.147Z,209.63
2018-12-17T08:21:45.281Z,208.00
2018-12-17T08:24:13.422Z,169.20
2018-12-17T08:26:42.382Z,220.77
2018-12-17T08:29:10.718Z,177.30
2018-12-17T08:31:38.866Z,208.67
2018-12-17T08:34:07.095Z,188.83
2018-12-17T08:36:35.239Z,185.30
2018-12-17T08:39:06.057Z,188.90
2018-12-17T08:41:34.240Z,196.60
2018-12-17T08:44:02.380Z,208.33
2018-12-17T08:46:30.570Z,194.33
2018-12-17T08:48:58.912Z,188.90
2018-12-17T08:51:27.076Z,192.03
2018-12-17T08:53:55.318Z,213.27
2018-12-17T08:56:23.471Z,230.40
2018-12-17T08:58:51.734Z,192.83
2018-12-17T09:01:20.621Z,194.23
2018-12-17T09:03:48.767Z,215.27
2018-12-17T09:06:17.139Z,218.93
2018-12-17T09:08:45.276Z,221.43
2018-12-17T09:11:13.420Z,224.77
2018-12-17T09:13:41.710Z,204.17
2018-12-17T09:16:09.865Z,199.70
2018-12-17T09:18:38.040Z,210.50
2018-12-17T09:21:06.456Z,228.13
2018-12-17T09:23:34.603Z,207.67
2018-12-17T09:26:02.758Z,211.50
2018-12-17T09:28:30.902Z,236.13
2018-12-17T09:30:59.064Z,252.03
2018-12-17T09:33:28.721Z,251.37
2018-12-17T09:35:57.121Z,240.80
2018-12-17T09:38:25.309Z,209.50
2018-12-17T09:40:53.487Z,222.50
2018-12-17T09:43:21.733Z,216.77
2018-12-17T09:45:49.884Z,215.30
2018-12-17T09:48:18.024Z,240.77
2018-12-17T09:50:46.227Z,236.70
2018-12-17T09:53:14.575Z,207.77
2018-12-17T09:55:42.773Z,201.67
2018-12-17T09:58:10.923Z,185.87
2018-12-17T10:00:39.083Z,178.03
2018-12-17T10:03:07.226Z,228.17
2018-12-17T10:05:35.428Z,188.43
2018-12-17T10:08:03.708Z,182.13
2018-12-17T10:10:31.897Z,171.50
2018-12-17T10:13:00.051Z,179.47
2018-12-17T10:15:28.215Z,189.50
2018-12-17T10:17:56.413Z,164.53
2018-12-17T10:20:24.559Z,146.20
2018-12-17T10:22:52.722Z,156.23
2018-12-17T10:25:20.857Z,177.03
2018-12-17T10:27:49.011Z,152.27
2018-12-17T10:30:17.216Z,161.60
2018-12-17T10:32:45.361Z,138.50
2018-12-17T10:35:13.526Z,144.40
2018-12-17T10:37:42.614Z,140.73
2018-12-17T10:40:10.875Z,148.47
2018-12-17T10:42:39.631Z,152.97
2018-12-17T10:45:08.073Z,137.70
2018-12-17T10:47:38.270Z,159.27
2018-12-17T10:50:06.617Z,145.87
2018-12-17T10:52:34.777Z,140.17
2018-12-17T10:55:04.459Z,137.27
2018-12-17T10:57:32.708Z,129.30
2018-12-17T11:00:00.856Z,125.33
2018-12-17T11:02:31.006Z,133.17
2018-12-17T11:05:00.529Z,114.77
2018-12-17T11:07:28.690Z,114.07
2018-12-17T11:09:56.834Z,121.53
2018-12-17T11:12:25.002Z,114.00
2018-12-17T11:14:53.235Z,112.80
2018-12-17T11:17:21.386Z,120.67
2018-12-17T11:19:49.634Z,101.73
2018-12-17T11:22:17.970Z,103.80
2018-12-17T11:24:47.163Z,104.00
2018-12-17T11:27:15.574Z,107.47
2018-12-17T11:29:43.722Z,92.80
2018-12-17T11:32:11.906Z,104.97
2018-12-17T11:34:40.150Z,94.10
2018-12-17T11:37:08.484Z,92.97
2018-12-17T11:39:36.681Z,93.00
2018-12-17T11:42:04.939Z,94.07
2018-12-17T11:44:33.089Z,91.77
2018-12-17T11:47:02.508Z,89.00
2018-12-17T11:49:30.734Z,86.00
2018-12-17T11:51:58.939Z,88.73
2018-12-17T11:54:27.144Z,85.00
2018-12-17T11:59:54.816Z,88.80
2018-12-17T12:02:23.177Z,82.77
2018-12-17T12:04:51.320Z,85.07
2018-12-17T12:07:19.654Z,73.60
2018-12-17T12:09:47.863Z,86.97
2018-12-17T12:12:16.097Z,88.97
2018-12-17T12:14:44.287Z,82.27
2018-12-17T12:17:12.808Z,79.93
2018-12-17T12:19:41.011Z,73.30
2018-12-17T12:22:09.211Z,76.47
2018-12-17T12:24:37.351Z,71.17
2018-12-17T12:27:05.614Z,72.83
2018-12-17T12:29:33.779Z,69.53
2018-12-17T12:32:01.939Z,72.77
2018-12-17T12:34:30.245Z,64.70
2018-12-17T12:36:58.559Z,67.37
2018-12-17T12:39:26.708Z,70.83
2018-12-17T12:41:54.916Z,65.50
2018-12-17T12:44:23.045Z,64.17
2018-12-17T12:46:51.218Z,64.63
2018-12-17T12:49:19.423Z,67.10
2018-12-17T12:51:47.589Z,67.40
2018-12-17T12:54:15.732Z,65.37
2018-12-17T12:56:44.218Z,65.00
2018-12-17T12:59:12.446Z,64.30
2018-12-17T13:01:40.596Z,68.17
2018-12-17T13:04:08.849Z,64.90
2018-12-17T13:06:37.253Z,64.23
2018-12-17T13:09:07.056Z,67.83
2018-12-17T13:11:35.211Z,64.17
2018-12-17T13:14:03.358Z,59.80
2018-12-17T13:16:32.165Z,65.00
2018-12-17T13:19:01.159Z,64.17
2018-12-17T13:21:29.306Z,59.53
2018-12-17T13:23:57.515Z,64.70
2018-12-17T13:26:25.659Z,56.90
2018-12-17T13:28:53.906Z,63.07
2018-12-17T13:31:22.095Z,60.77
2018-12-17T13:33:50.826Z,59.30
2018-12-17T13:36:19.059Z,57.03
2018-12-17T13:38:47.271Z,57.33
2018-12-17T13:41:15.894Z,58.93
2018-12-17T13:43:44.323Z,70.13
2018-12-17T13:46:12.479Z,61.63
2018-12-17T13:48:40.938Z,61.87
2018-12-17T13:51:14.915Z,51.67
2018-12-17T13:53:43.065Z,53.80
2018-12-17T13:56:11.226Z,63.57
2018-12-17T13:58:40.446Z,56.70
2018-12-17T14:01:08.727Z,51.50
2018-12-17T14:03:36.955Z,54.97
2018-12-17T14:06:05.189Z,53.10
2018-12-17T14:08:33.409Z,52.57
2018-12-17T14:11:01.674Z,60.23
2018-12-17T14:13:29.842Z,46.87
2018-12-17T14:16:00.243Z,47.10
2018-12-17T14:18:34.239Z,50.23
2018-12-17T14:21:08.353Z,53.27
2018-12-17T14:23:36.598Z,46.13
2018-12-17T14:26:04.981Z,49.47
2018-12-17T14:28:33.188Z,51.33
2018-12-17T14:31:01.429Z,43.23
2018-12-17T14:33:29.706Z,42.77
2018-12-17T14:36:04.925Z,49.67
2018-12-17T14:38:33.140Z,45.80
2018-12-17T14:41:01.319Z,44.50
2018-12-17T14:43:30.493Z,42.63
2018-12-17T14:45:58.696Z,44.20
2018-12-17T14:48:26.917Z,46.33
2018-12-17T14:50:55.104Z,39.40
2018-12-17T14:53:23.230Z,37.10
2018-12-17T14:55:51.455Z,42.03
2018-12-17T14:58:19.614Z,43.63
2018-12-17T15:00:47.763Z,39.03
2018-12-17T15:03:16.005Z,43.23
2018-12-17T15:05:44.159Z,39.23
2018-12-17T15:08:12.357Z,40.07
2018-12-17T15:10:40.501Z,40.13
2018-12-17T15:13:08.715Z,39.17
2018-12-17T15:15:36.847Z,36.10
2018-12-17T15:18:05.026Z,40.53
2018-12-17T15:20:33.308Z,37.80
2018-12-17T15:23:01.453Z,40.60
2018-12-17T15:25:29.589Z,39.63
2018-12-17T15:27:58.475Z,42.00
2018-12-17T15:30:26.778Z,38.57
2018-12-17T15:32:54.919Z,40.43
2018-12-17T15:35:23.749Z,38.20
2018-12-17T15:37:51.888Z,40.10
2018-12-17T15:40:20.765Z,37.57
2018-12-17T15:42:48.923Z,40.30
2018-12-17T15:45:17.154Z,45.17
2018-12-17T15:47:45.358Z,39.27
2018-12-17T15:50:13.517Z,36.17
2018-12-17T15:52:41.734Z,37.60
2018-12-17T15:55:10.501Z,39.70
2018-12-17T15:57:38.828Z,38.37
2018-12-17T16:00:08.976Z,38.73
2018-12-17T16:02:37.282Z,31.33
2018-12-17T16:05:05.671Z,33.63
2018-12-17T16:07:33.886Z,35.93
2018-12-17T16:10:02.035Z,35.97
2018-12-17T16:12:30.336Z,35.37
2018-12-17T16:14:58.585Z,37.17
2018-12-17T16:17:26.888Z,29.70
2018-12-17T16:19:55.295Z,33.33
2018-12-17T16:22:23.438Z,36.27
2018-12-17T16:24:51.625Z,34.10
2018-12-17T16:27:20.122Z,29.83
2018-12-17T16:29:48.329Z,39.57
2018-12-17T16:32:16.503Z,33.00
2018-12-17T16:34:44.663Z,34.17
2018-12-17T16:37:13.254Z,32.13
2018-12-17T16:39:41.476Z,32.47
2018-12-17T16:42:09.701Z,34.53
2018-12-17T16:44:38.151Z,28.53
2018-12-17T16:47:06.358Z,30.73
2018-12-17T16:49:34.717Z,28.53
2018-12-17T16:52:02.868Z,25.00
2018-12-17T16:54:31.085Z,25.83
2018-12-17T16:56:59.305Z,28.87
2018-12-17T16:59:27.436Z,24.90
2018-12-17T17:01:55.585Z,22.03
2018-12-17T17:04:23.735Z,30.20
2018-12-17T17:06:51.892Z,23.03
2018-12-17T17:09:20.033Z,21.93
2018-12-17T17:11:48.292Z,26.50
2018-12-17T17:14:16.505Z,20.80
2018-12-17T17:16:44.697Z,27.13
2018-12-17T17:19:12.916Z,19.53
2018-12-17T17:21:41.063Z,20.50
2018-12-17T17:24:10.482Z,22.13
2018-12-17T17:26:38.628Z,20.30
2018-12-17T17:29:06.830Z,21.00
2018-12-17T17:31:35.046Z,20.90
2018-12-17T17:34:03.281Z,19.10
2018-12-17T17:36:31.700Z,23.50
2018-12-17T17:39:00.105Z,16.43
2018-12-17T17:41:28.343Z,16.40
2018-12-17T17:43:56.482Z,19.77
2018-12-17T17:46:25.234Z,16.73
2018-12-17T17:48:53.382Z,14.40
2018-12-17T17:51:21.625Z,20.97
2018-12-17T17:53:49.756Z,17.37
2018-12-17T17:56:18.415Z,18.90
2018-12-17T17:58:46.752Z,19.17
2018-12-17T18:01:15.064Z,20.23
2018-12-17T18:03:43.325Z,15.30
2018-12-17T18:06:16.151Z,16.07
2018-12-17T18:08:42.845Z,15.23
2018-12-17T18:11:11.071Z,16.93
2018-12-17T18:13:39.246Z,14.53
2018-12-17T18:16:07.637Z,16.93
2018-12-17T18:18:37.105Z,21.93
2018-12-17T18:21:05.438Z,15.20
2018-12-17T18:23:33.629Z,13.63
2018-12-17T18:26:01.766Z,15.27
2018-12-17T18:28:29.965Z,12.53
2018-12-17T18:30:58.098Z,14.13
2018-12-17T18:33:26.244Z,17.67
2018-12-17T18:35:54.469Z,15.87
2018-12-17T18:38:22.872Z,14.53
2018-12-17T18:40:52.512Z,13.47
2018-12-17T18:43:20.646Z,11.97
2018-12-17T18:45:48.782Z,15.67
2018-12-17T18:48:16.931Z,16.67
2018-12-17T18:50:45.075Z,14.20
2018-12-17T18:53:13.209Z,13.30
2018-12-17T18:55:41.347Z,15.03
2018-12-17T18:58:09.501Z,15.20
2018-12-17T19:00:37.978Z,9.77
2018-12-17T19:03:06.107Z,13.83
2018-12-17T19:05:34.346Z,15.37
2018-12-17T19:08:02.526Z,13.50
2018-12-17T19:10:32.711Z,18.27
2018-12-17T19:13:01.589Z,11.17
2018-12-17T19:15:29.738Z,12.20
2018-12-17T19:17:57.879Z,10.23
2018-12-17T19:20:26.110Z,15.97
2018-12-17T19:22:54.386Z,13.13
2018-12-17T19:25:22.605Z,11.40
2018-12-17T19:27:50.744Z,11.03
2018-12-17T19:30:18.886Z,10.10
2018-12-17T19:32:47.026Z,13.50
2018-12-17T19:35:15.287Z,13.03
2018-12-17T19:37:43.903Z,11.87
2018-12-17T19:40:12.405Z,13.63
2018-12-17T19:42:40.624Z,11.63
2018-12-17T19:45:08.950Z,10.17
2018-12-17T19:47:37.158Z,13.10
2018-12-17T19:50:06.845Z,11.87
2018-12-17T19:52:34.970Z,9.63
2018-12-17T19:55:03.214Z,9.73
2018-12-17T19:57:31.411Z,12.10
2018-12-17T19:59:59.541Z,11.70
2018-12-17T20:02:27.815Z,11.30
2018-12-17T20:04:55.949Z,9.73
2018-12-17T20:07:24.107Z,9.63
2018-12-17T20:09:52.248Z,8.57
2018-12-17T20:12:20.374Z,9.27
2018-12-17T20:14:48.524Z,12.13
2018-12-17T20:17:16.712Z,11.50
2018-12-17T20:19:44.837Z,10.07
2018-12-17T20:22:13.437Z,8.77
2018-12-17T20:24:42.029Z,13.97
2018-12-17T20:27:10.159Z,10.50
2018-12-17T20:29:38.355Z,10.23
2018-12-17T20:32:06.561Z,8.73
2018-12-17T20:34:34.703Z,13.97
2018-12-17T20:37:03.015Z,14.77
2018-12-17T20:39:31.175Z,12.17
2018-12-17T20:41:59.407Z,11.00
2018-12-17T20:44:27.552Z,12.70
2018-12-17T20:46:55.885Z,11.03
2018-12-17T20:49:24.102Z,10.77
2018-12-17T20:51:52.251Z,10.33
2018-12-17T20:54:20.448Z,14.07
2018-12-17T20:56:48.629Z,16.20
2018-12-17T20:59:16.849Z,11.10
2018-12-17T21:01:45.471Z,15.23
2018-12-17T21:04:13.705Z,15.00
2018-12-17T21:06:41.921Z,11.60
2018-12-17T21:09:10.065Z,15.87
2018-12-17T21:11:38.215Z,13.20
2018-12-17T21:14:06.407Z,14.30
2018-12-17T21:16:34.670Z,19.87
2018-12-17T21:19:02.813Z,17.67
2018-12-17T21:21:30.967Z,14.43
2018-12-17T21:23:59.194Z,13.93
2018-12-17T21:26:27.335Z,17.53
2018-12-17T21:28:55.966Z,15.77
2018-12-17T21:31:24.294Z,19.03
2018-12-17T21:33:52.422Z,19.23
2018-12-17T21:36:20.568Z,21.13
2018-12-17T21:38:48.858Z,17.20
2018-12-17T21:41:16.994Z,20.63
2018-12-17T21:43:45.136Z,22.03
2018-12-17T21:46:13.301Z,22.60
2018-12-17T21:48:41.704Z,23.57
2018-12-17T21:51:09.830Z,17.53
2018-12-17T21:53:38.173Z,17.27
2018-12-17T21:56:06.317Z,20.63
2018-12-17T21:58:34.489Z,18.87
2018-12-17T22:01:02.833Z,20.00
2018-12-17T22:03:30.990Z,21.23
2018-12-17T22:05:59.291Z,21.73
2018-12-17T22:08:27.502Z,14.13
2018-12-17T22:10:55.850Z,21.87
2018-12-17T22:13:24.110Z,20.67
2018-12-17T22:15:52.369Z,24.30
2018-12-17T22:18:20.654Z,20.83
2018-12-17T22:20:48.858Z,24.00
2018-12-17T22:23:16.998Z,24.97
2018-12-17T22:25:45.238Z,20.37
2018-12-17T22:28:13.578Z,24.43
2018-12-17T22:30:41.791Z,24.23
2018-12-17T22:33:09.949Z,26.33
2018-12-17T22:35:38.146Z,24.30
2018-12-17T22:38:06.366Z,26.47
2018-12-17T22:40:34.528Z,29.77
2018-12-17T22:43:02.694Z,26.33
2018-12-17T22:45:30.881Z,32.67
2018-12-17T22:47:59.032Z,30.93
2018-12-17T22:50:27.186Z,29.53
2018-12-17T22:52:55.322Z,25.57
2018-12-17T22:55:23.485Z,27.67
2018-12-17T22:57:51.684Z,37.33
2018-12-17T23:00:20.191Z,29.70
2018-12-17T23:02:48.445Z,32.93
2018-12-17T23:05:16.582Z,34.00
2018-12-17T23:07:44.716Z,32.13
2018-12-17T23:10:24.798Z,32.70
2018-12-17T23:13:04.901Z,36.30
2018-12-17T23:15:44.944Z,35.37
2018-12-17T23:18:14.248Z,33.70
2018-12-17T23:20:42.771Z,39.97
2018-12-17T23:23:11.181Z,31.97
2018-12-17T23:25:39.441Z,32.13
2018-12-17T23:28:08.129Z,33.87
2018-12-17T23:30:36.452Z,29.73
2018-12-17T23:33:04.594Z,29.60
2018-12-17T23:35:32.814Z,36.93
2018-12-17T23:38:01.085Z,24.87
2018-12-17T23:40:29.223Z,34.90
2018-12-17T23:42:58.180Z,32.30
2018-12-17T23:45:26.407Z,26.37
2018-12-17T23:47:54.575Z,38.00
2018-12-17T23:50:22.785Z,42.30
2018-12-17T23:52:51.459Z,33.73
2018-12-17T23:55:19.608Z,27.27
2018-12-17T23:57:47.795Z,29.30
